Meteo Giornale » Osservazioni meteo Italia » Milano-Linate

ore: 08:20 - Osservazioni Meteo Milano-Linate
Lat. 45° 26' N Lon. 9° 17' E Alt. 107 metri s.l.m.

sereno Europe/Rome

17 °C

Sereno

Temp. 24 Ore

15 °C

24 °C

Nord

5.5 Km/h

Dew point 13 °C

Umidità 77 %

Visibilità  10 Km

Il sole sorge alle ore 05:35

Il sole tramonta alle ore 21:06

Data e Ora Cielo e Fenomeni T °C DP °C Um. % Pres. hPa Vis. km Vento km/h
Oggi h: 08:20 sereno Sereno 17 13 77 1018 10 N 5.5
Oggi h: 07:50 sereno Sereno 16 13 82 1018 10 N 1.8
Oggi h: 07:20 sereno Sereno 16 12 77 1018 10 N 3.7
Oggi h: 06:50 sereno Sereno 15 12 82 1018 10 N 1.8
Oggi h: 05:50 sereno Sereno 16 12 77 1017 10 E 9.3
Oggi h: 05:20 sereno Sereno 16 12 77 1017 10 E 9.3
Oggi h: 04:50 poco_nuvoloso Poco Nuvoloso 16 12 77 1017 10 E 11.1
Oggi h: 04:20 poco_nuvoloso Poco Nuvoloso 16 12 77 1017 10 E/NE 9.3
Oggi h: 03:50 sereno Sereno 16 12 77 1017 10 E 9.3
Oggi h: 03:20 sereno Sereno 17 12 72 1017 10 E 9.3
Oggi h: 02:50 sereno Sereno 17 12 72 1017 10 E/NE 9.3
Oggi h: 02:20 sereno Sereno 17 12 72 1016 10 E 9.3
Oggi h: 01:50 sereno Sereno 17 12 72 1016 10 E 11.1
Oggi h: 01:20 sereno Sereno 18 12 67 1016 10 E 11.1
Oggi h: 00:50 sereno Sereno 17 12 72 1016 10 N 5.5
Oggi h: 00:20 sereno Sereno 16 13 82 1016 10 N 1.8
Ieri h: 23:50 sereno Sereno 17 13 77 1015 10 N 3.7
Ieri h: 22:50 sereno Sereno 17 13 77 1015 10 N 0
Ieri h: 22:20 sereno Sereno 18 13 72 1015 10 N 1.8
Ieri h: 21:50 sereno Sereno 19 13 68 1014 10 N 1.8
Ieri h: 20:50 poco_nuvoloso Poco Nuvoloso 22 12 53 1014 10 N 3.7
Ieri h: 20:20 poco_nuvoloso Poco Nuvoloso 22 11 49 1014 10 N 3.7
Ieri h: 19:50 poco_nuvoloso Poco Nuvoloso 22 11 49 1014 10 S/SO 9.3
Ieri h: 19:20 poco_nuvoloso Poco Nuvoloso 23 11 46 1013 10 S/SO 7.4
Ieri h: 18:50 poco_nuvoloso Poco Nuvoloso 24 11 43 1013 10 S/SO 7.4
Ieri h: 17:50 nuvoloso Nuvoloso 24 10 41 1014 10 N 7.4
Ieri h: 16:50 nuvoloso Nuvoloso 24 10 41 1014 10 SO 9.3
Ieri h: 16:20 nuvoloso Nuvoloso 23 10 43 1014 10 N 5.5
Ieri h: 15:50 nuvoloso Nuvoloso 23 10 43 1015 10 S/SE 9.3
Ieri h: 15:20 nuvoloso Nuvoloso 22 10 46 1015 10 N 7.4
Ieri h: 14:50 poco_nuvoloso Poco Nuvoloso 22 10 46 1015 10 O 7.4
Ieri h: 14:20 poco_nuvoloso Poco Nuvoloso 22 10 46 1015 10 N 5.5
Ieri h: 13:50 poco_nuvoloso Poco Nuvoloso 21 10 49 1016 10 N 5.5
Ieri h: 13:20 poco_nuvoloso Poco Nuvoloso 21 10 49 1016 10 S/SO 7.4
Ieri h: 12:50 poco_nuvoloso Poco Nuvoloso 21 10 49 1016 10 S/SE 7.4
Ieri h: 12:20 sereno Sereno 20 9 49 1016 10 N 9.3
Ieri h: 11:50 sereno Sereno 20 10 52 1017 10 S 11.1
Ieri h: 11:20 nuvoloso Nuvoloso 20 11 56 1017 10 SE 9.3
Ieri h: 10:50 molto_nuvoloso Molto Nuvoloso 18 11 63 1017 10 S/SE 9.3
Ieri h: 10:20 nuvoloso Nuvoloso 18 12 67 1017 10 SE 9.3
Ieri h: 09:50 molto_nuvoloso Molto Nuvoloso 18 12 67 1017 10 E/SE 7.4
Ieri h: 09:20 molto_nuvoloso Molto Nuvoloso 17 13 77 1017 10 N 1.8
Ieri h: 08:50 molto_nuvoloso Molto Nuvoloso 16 13 82 1017 10 N 3.7